CheckWX is a tool to help pilots better visualize weather data.  It is not intended as a substitute for an official pre-flight weather briefing.

22:31:42 UTC

EGLC METAR
London City Airport
London, United Kingdom
Current

12 mins ago

EGLC 062220Z AUTO 24012KT 9999 NCD 10/06 Q1008
Observed
Dec-6 @ 22:20 UTC
Wind
  • 240° at 12 KTS
Visibility
10,000+ meters
Flight Rules
VFR
Cloud Levels
  • Clear skies
Temperature
10°C / 50°F
Dewpoint
C / 43°F
Humidity
76%
Altimeter
29.76" Hg
Pressure
1007.92 hPa
Previous

42 mins ago

EGLC 062150Z AUTO 25012KT 9999 FEW029 10/06 Q1008
Observed
Dec-6 @ 21:50 UTC
Wind
  • 250° at 12 KTS
Visibility
10,000+ meters
Flight Rules
VFR
Cloud Levels
  • Few at 2,900' AGL
Temperature
10°C / 50°F
Dewpoint
C / 43°F
Humidity
76%
Altimeter
29.76" Hg
Pressure
1007.92 hPa
Previous

1 hour ago

EGLC 062120Z AUTO 26013KT 9999 FEW042 11/06 Q1007
Observed
Dec-6 @ 21:20 UTC
Wind
  • 260° at 13 KTS
Visibility
10,000+ meters
Flight Rules
VFR
Cloud Levels
  • Few at 4,200' AGL
Temperature
11°C / 52°F
Dewpoint
C / 43°F
Humidity
72%
Altimeter
29.73" Hg
Pressure
1006.92 hPa